Terminal Aerodrome Forecast
Issued by NWS

Current Version | Previous Version | Text Only | Print | Product List | Glossary On
Versions: 1 2 3 4 5 6 7 8 9 10 11 12 13 14 15 16 17 18 19 20 21 22 23
754
FTUS45 KRIW 240527
TAFPNA
TAF
KPNA 240527Z 2406/2506 29006KT P6SM SKC
     FM241800 26017G27KT P6SM SCT080
     FM242200 26018G28KT P6SM VCTS SCT050 BKN080CB
     FM250200 29014KT P6SM SCT060 BKN090
      AMD LTD TO CLD VIS AND WIND=

USA.gov is the U.S. government's official web portal to all federal, state and local government web resources and services.